sensor_id;sensor_type;location;lat;lon;timestamp;P1;durP1;ratioP1;P2;durP2;ratioP2
39930;SDS011;26635;-35.248;149.138;2022-12-22T00:00:04;4.95;;;0.90;;
39930;SDS011;26635;-35.248;149.138;2022-12-22T00:02:53;2.78;;;1.00;;
39930;SDS011;26635;-35.248;149.138;2022-12-22T00:05:41;3.45;;;1.00;;
39930;SDS011;26635;-35.248;149.138;2022-12-22T00:08:30;3.03;;;0.75;;
39930;SDS011;26635;-35.248;149.138;2022-12-22T00:11:25;5.22;;;2.17;;
39930;SDS011;26635;-35.248;149.138;2022-12-22T00:14:14;2.85;;;1.60;;
39930;SDS011;26635;-35.248;149.138;2022-12-22T00:17:02;2.97;;;1.10;;
39930;SDS011;26635;-35.248;149.138;2022-12-22T00:20:01;4.28;;;1.10;;
39930;SDS011;26635;-35.248;149.138;2022-12-22T00:22:55;2.13;;;1.02;;
39930;SDS011;26635;-35.248;149.138;2022-12-22T00:25:46;3.13;;;0.85;;
39930;SDS011;26635;-35.248;149.138;2022-12-22T00:28:38;2.15;;;0.93;;
39930;SDS011;26635;-35.248;149.138;2022-12-22T00:31:27;3.42;;;0.88;;
39930;SDS011;26635;-35.248;149.138;2022-12-22T00:34:19;4.80;;;1.30;;
39930;SDS011;26635;-35.248;149.138;2022-12-22T00:37:12;1.58;;;0.88;;
39930;SDS011;26635;-35.248;149.138;2022-12-22T00:40:04;2.53;;;1.10;;
39930;SDS011;26635;-35.248;149.138;2022-12-22T00:43:22;3.70;;;1.30;;
39930;SDS011;26635;-35.248;149.138;2022-12-22T00:46:11;3.10;;;1.13;;
39930;SDS011;26635;-35.248;149.138;2022-12-22T00:49:04;3.20;;;1.00;;
39930;SDS011;26635;-35.248;149.138;2022-12-22T00:51:55;4.10;;;1.15;;
39930;SDS011;26635;-35.248;149.138;2022-12-22T00:54:48;4.13;;;1.08;;
39930;SDS011;26635;-35.248;149.138;2022-12-22T00:57:42;6.32;;;1.40;;
39930;SDS011;26635;-35.248;149.138;2022-12-22T01:00:33;3.90;;;1.13;;
39930;SDS011;26635;-35.248;149.138;2022-12-22T01:03:22;6.40;;;1.20;;
39930;SDS011;26635;-35.248;149.138;2022-12-22T01:06:10;4.30;;;1.70;;
39930;SDS011;26635;-35.248;149.138;2022-12-22T01:08:59;6.45;;;1.60;;
39930;SDS011;26635;-35.248;149.138;2022-12-22T01:11:50;4.55;;;1.30;;
39930;SDS011;26635;-35.248;149.138;2022-12-22T01:14:40;2.85;;;1.00;;
39930;SDS011;26635;-35.248;149.138;2022-12-22T01:17:29;5.70;;;1.85;;
39930;SDS011;26635;-35.248;149.138;2022-12-22T01:20:20;3.13;;;1.00;;
39930;SDS011;26635;-35.248;149.138;2022-12-22T01:23:10;5.25;;;1.20;;
39930;SDS011;26635;-35.248;149.138;2022-12-22T01:25:59;5.95;;;1.25;;
39930;SDS011;26635;-35.248;149.138;2022-12-22T01:28:47;3.40;;;1.45;;
39930;SDS011;26635;-35.248;149.138;2022-12-22T01:31:35;3.42;;;1.27;;
39930;SDS011;26635;-35.248;149.138;2022-12-22T01:34:26;3.90;;;1.55;;
39930;SDS011;26635;-35.248;149.138;2022-12-22T01:37:14;4.55;;;1.52;;
39930;SDS011;26635;-35.248;149.138;2022-12-22T01:40:05;3.15;;;1.08;;
39930;SDS011;26635;-35.248;149.138;2022-12-22T01:43:10;2.70;;;1.23;;
39930;SDS011;26635;-35.248;149.138;2022-12-22T01:46:27;3.50;;;1.40;;
39930;SDS011;26635;-35.248;149.138;2022-12-22T01:49:40;4.05;;;1.80;;
39930;SDS011;26635;-35.248;149.138;2022-12-22T01:52:43;3.97;;;1.38;;
39930;SDS011;26635;-35.248;149.138;2022-12-22T01:55:32;2.45;;;1.50;;
39930;SDS011;26635;-35.248;149.138;2022-12-22T01:58:25;3.60;;;1.65;;
39930;SDS011;26635;-35.248;149.138;2022-12-22T02:01:20;4.85;;;1.50;;
39930;SDS011;26635;-35.248;149.138;2022-12-22T02:04:11;6.28;;;2.28;;
39930;SDS011;26635;-35.248;149.138;2022-12-22T02:07:03;2.80;;;1.30;;
39930;SDS011;26635;-35.248;149.138;2022-12-22T02:15:58;1.65;;;1.15;;
39930;SDS011;26635;-35.248;149.138;2022-12-22T02:19:01;3.33;;;1.77;;
39930;SDS011;26635;-35.248;149.138;2022-12-22T02:25:26;3.85;;;1.15;;
39930;SDS011;26635;-35.248;149.138;2022-12-22T02:28:40;3.25;;;1.00;;
39930;SDS011;26635;-35.248;149.138;2022-12-22T02:31:38;3.38;;;1.20;;
39930;SDS011;26635;-35.248;149.138;2022-12-22T02:34:29;3.20;;;2.15;;
39930;SDS011;26635;-35.248;149.138;2022-12-22T02:37:35;4.13;;;1.42;;
39930;SDS011;26635;-35.248;149.138;2022-12-22T02:46:54;3.08;;;1.20;;
39930;SDS011;26635;-35.248;149.138;2022-12-22T02:53:04;4.32;;;1.40;;
39930;SDS011;26635;-35.248;149.138;2022-12-22T02:56:02;2.33;;;1.23;;
39930;SDS011;26635;-35.248;149.138;2022-12-22T02:58:55;2.95;;;1.75;;
39930;SDS011;26635;-35.248;149.138;2022-12-22T03:01:45;4.72;;;1.60;;
39930;SDS011;26635;-35.248;149.138;2022-12-22T03:04:33;2.85;;;1.38;;
39930;SDS011;26635;-35.248;149.138;2022-12-22T03:07:23;2.15;;;1.20;;
39930;SDS011;26635;-35.248;149.138;2022-12-22T03:10:11;3.67;;;1.52;;
39930;SDS011;26635;-35.248;149.138;2022-12-22T03:13:02;5.47;;;1.38;;
39930;SDS011;26635;-35.248;149.138;2022-12-22T03:15:50;2.25;;;0.90;;
39930;SDS011;26635;-35.248;149.138;2022-12-22T03:18:39;3.45;;;0.80;;
39930;SDS011;26635;-35.248;149.138;2022-12-22T03:21:27;1.88;;;0.80;;
39930;SDS011;26635;-35.248;149.138;2022-12-22T03:24:18;1.42;;;0.82;;
39930;SDS011;26635;-35.248;149.138;2022-12-22T03:27:07;1.95;;;0.82;;
39930;SDS011;26635;-35.248;149.138;2022-12-22T03:29:40;2.35;;;0.75;;
39930;SDS011;26635;-35.248;149.138;2022-12-22T03:32:12;3.25;;;1.20;;
39930;SDS011;26635;-35.248;149.138;2022-12-22T03:34:43;2.25;;;0.80;;
39930;SDS011;26635;-35.248;149.138;2022-12-22T03:37:13;3.13;;;1.00;;
39930;SDS011;26635;-35.248;149.138;2022-12-22T03:39:44;1.17;;;0.50;;
39930;SDS011;26635;-35.248;149.138;2022-12-22T03:42:15;1.63;;;0.68;;
39930;SDS011;26635;-35.248;149.138;2022-12-22T03:45:04;2.00;;;0.60;;
39930;SDS011;26635;-35.248;149.138;2022-12-22T03:47:53;2.25;;;0.50;;
39930;SDS011;26635;-35.248;149.138;2022-12-22T03:50:36;2.40;;;1.00;;
39930;SDS011;26635;-35.248;149.138;2022-12-22T03:53:19;1.02;;;0.40;;
39930;SDS011;26635;-35.248;149.138;2022-12-22T03:55:50;1.50;;;0.60;;
39930;SDS011;26635;-35.248;149.138;2022-12-22T03:58:31;1.45;;;0.60;;
39930;SDS011;26635;-35.248;149.138;2022-12-22T04:01:04;4.43;;;0.70;;
39930;SDS011;26635;-35.248;149.138;2022-12-22T04:03:43;3.30;;;1.02;;
39930;SDS011;26635;-35.248;149.138;2022-12-22T04:06:15;2.17;;;0.60;;
39930;SDS011;26635;-35.248;149.138;2022-12-22T04:08:46;3.30;;;0.70;;
39930;SDS011;26635;-35.248;149.138;2022-12-22T04:11:17;1.85;;;0.70;;
39930;SDS011;26635;-35.248;149.138;2022-12-22T04:14:05;1.00;;;0.50;;
39930;SDS011;26635;-35.248;149.138;2022-12-22T04:16:36;2.17;;;0.80;;
39930;SDS011;26635;-35.248;149.138;2022-12-22T04:19:07;1.40;;;0.60;;
39930;SDS011;26635;-35.248;149.138;2022-12-22T04:21:50;1.10;;;0.40;;
39930;SDS011;26635;-35.248;149.138;2022-12-22T04:24:22;2.70;;;1.20;;
39930;SDS011;26635;-35.248;149.138;2022-12-22T04:26:53;2.58;;;0.82;;
39930;SDS011;26635;-35.248;149.138;2022-12-22T04:29:23;2.75;;;0.60;;
39930;SDS011;26635;-35.248;149.138;2022-12-22T04:31:59;2.15;;;0.50;;
39930;SDS011;26635;-35.248;149.138;2022-12-22T04:34:29;3.60;;;0.47;;
39930;SDS011;26635;-35.248;149.138;2022-12-22T04:37:04;0.88;;;0.50;;
39930;SDS011;26635;-35.248;149.138;2022-12-22T04:39:50;3.03;;;0.65;;
39930;SDS011;26635;-35.248;149.138;2022-12-22T04:42:21;2.28;;;0.68;;
39930;SDS011;26635;-35.248;149.138;2022-12-22T04:44:52;1.60;;;0.60;;
39930;SDS011;26635;-35.248;149.138;2022-12-22T04:47:22;1.67;;;0.60;;
39930;SDS011;26635;-35.248;149.138;2022-12-22T04:49:53;1.45;;;0.55;;
39930;SDS011;26635;-35.248;149.138;2022-12-22T04:52:23;2.60;;;1.08;;
39930;SDS011;26635;-35.248;149.138;2022-12-22T04:54:54;1.92;;;0.80;;
39930;SDS011;26635;-35.248;149.138;2022-12-22T04:57:37;2.35;;;0.70;;
39930;SDS011;26635;-35.248;149.138;2022-12-22T05:00:08;4.90;;;1.30;;
39930;SDS011;26635;-35.248;149.138;2022-12-22T05:02:41;1.08;;;0.63;;
39930;SDS011;26635;-35.248;149.138;2022-12-22T05:05:13;2.38;;;1.08;;
39930;SDS011;26635;-35.248;149.138;2022-12-22T05:07:44;2.70;;;0.68;;
39930;SDS011;26635;-35.248;149.138;2022-12-22T05:10:16;1.95;;;1.10;;
39930;SDS011;26635;-35.248;149.138;2022-12-22T05:12:47;2.75;;;0.63;;
39930;SDS011;26635;-35.248;149.138;2022-12-22T05:17:56;2.60;;;0.80;;
39930;SDS011;26635;-35.248;149.138;2022-12-22T05:20:28;3.10;;;1.38;;
39930;SDS011;26635;-35.248;149.138;2022-12-22T05:22:59;3.42;;;1.00;;
39930;SDS011;26635;-35.248;149.138;2022-12-22T05:25:30;1.17;;;0.65;;
39930;SDS011;26635;-35.248;149.138;2022-12-22T05:28:01;1.85;;;0.60;;
39930;SDS011;26635;-35.248;149.138;2022-12-22T05:30:32;3.72;;;0.90;;
39930;SDS011;26635;-35.248;149.138;2022-12-22T05:33:03;2.58;;;0.60;;
39930;SDS011;26635;-35.248;149.138;2022-12-22T05:35:34;3.15;;;0.93;;
39930;SDS011;26635;-35.248;149.138;2022-12-22T05:38:04;4.43;;;1.10;;
39930;SDS011;26635;-35.248;149.138;2022-12-22T05:40:54;4.30;;;0.82;;
39930;SDS011;26635;-35.248;149.138;2022-12-22T05:43:56;2.17;;;0.60;;
39930;SDS011;26635;-35.248;149.138;2022-12-22T05:46:26;0.68;;;0.40;;
39930;SDS011;26635;-35.248;149.138;2022-12-22T05:48:57;3.55;;;1.38;;
39930;SDS011;26635;-35.248;149.138;2022-12-22T05:51:32;1.58;;;0.60;;
39930;SDS011;26635;-35.248;149.138;2022-12-22T05:54:03;2.72;;;0.70;;
39930;SDS011;26635;-35.248;149.138;2022-12-22T05:56:34;1.65;;;0.70;;
39930;SDS011;26635;-35.248;149.138;2022-12-22T05:59:05;2.38;;;0.80;;
39930;SDS011;26635;-35.248;149.138;2022-12-22T06:01:35;1.45;;;0.63;;
39930;SDS011;26635;-35.248;149.138;2022-12-22T06:04:06;2.92;;;0.60;;
39930;SDS011;26635;-35.248;149.138;2022-12-22T06:06:40;1.63;;;1.00;;
39930;SDS011;26635;-35.248;149.138;2022-12-22T06:09:12;1.88;;;0.95;;
39930;SDS011;26635;-35.248;149.138;2022-12-22T06:11:43;4.45;;;0.73;;
39930;SDS011;26635;-35.248;149.138;2022-12-22T06:14:18;1.48;;;0.60;;
39930;SDS011;26635;-35.248;149.138;2022-12-22T06:16:48;2.30;;;0.90;;
39930;SDS011;26635;-35.248;149.138;2022-12-22T06:19:19;3.35;;;0.80;;
39930;SDS011;26635;-35.248;149.138;2022-12-22T06:21:50;2.05;;;0.68;;
39930;SDS011;26635;-35.248;149.138;2022-12-22T06:24:21;0.85;;;0.70;;
39930;SDS011;26635;-35.248;149.138;2022-12-22T06:26:51;4.05;;;0.88;;
39930;SDS011;26635;-35.248;149.138;2022-12-22T06:29:21;3.45;;;1.00;;
39930;SDS011;26635;-35.248;149.138;2022-12-22T06:31:55;2.05;;;0.70;;
39930;SDS011;26635;-35.248;149.138;2022-12-22T06:34:25;2.60;;;0.88;;
39930;SDS011;26635;-35.248;149.138;2022-12-22T06:36:55;4.07;;;1.02;;
39930;SDS011;26635;-35.248;149.138;2022-12-22T06:39:25;1.77;;;0.80;;
39930;SDS011;26635;-35.248;149.138;2022-12-22T06:41:56;2.13;;;1.10;;
39930;SDS011;26635;-35.248;149.138;2022-12-22T06:44:45;1.20;;;0.77;;
39930;SDS011;26635;-35.248;149.138;2022-12-22T06:47:18;2.65;;;1.10;;
39930;SDS011;26635;-35.248;149.138;2022-12-22T06:49:51;1.83;;;0.98;;
39930;SDS011;26635;-35.248;149.138;2022-12-22T06:52:21;1.88;;;0.82;;
39930;SDS011;26635;-35.248;149.138;2022-12-22T06:55:04;2.90;;;1.10;;
39930;SDS011;26635;-35.248;149.138;2022-12-22T06:57:35;2.63;;;0.70;;
39930;SDS011;26635;-35.248;149.138;2022-12-22T07:00:06;2.17;;;1.27;;
39930;SDS011;26635;-35.248;149.138;2022-12-22T07:02:37;3.33;;;1.05;;
39930;SDS011;26635;-35.248;149.138;2022-12-22T07:05:08;3.15;;;1.15;;
39930;SDS011;26635;-35.248;149.138;2022-12-22T07:07:49;3.92;;;1.42;;
39930;SDS011;26635;-35.248;149.138;2022-12-22T07:10:34;6.00;;;1.25;;
39930;SDS011;26635;-35.248;149.138;2022-12-22T07:13:23;1.50;;;0.80;;
39930;SDS011;26635;-35.248;149.138;2022-12-22T07:16:02;3.10;;;1.00;;
39930;SDS011;26635;-35.248;149.138;2022-12-22T07:18:35;2.50;;;1.48;;
39930;SDS011;26635;-35.248;149.138;2022-12-22T07:21:09;3.00;;;1.13;;
39930;SDS011;26635;-35.248;149.138;2022-12-22T07:23:41;1.42;;;0.93;;
39930;SDS011;26635;-35.248;149.138;2022-12-22T07:26:11;4.38;;;1.08;;
39930;SDS011;26635;-35.248;149.138;2022-12-22T07:28:44;2.38;;;1.20;;
39930;SDS011;26635;-35.248;149.138;2022-12-22T07:31:16;1.73;;;1.00;;
39930;SDS011;26635;-35.248;149.138;2022-12-22T07:33:48;3.17;;;1.35;;
39930;SDS011;26635;-35.248;149.138;2022-12-22T07:36:18;1.95;;;0.95;;
39930;SDS011;26635;-35.248;149.138;2022-12-22T07:38:50;3.20;;;1.20;;
39930;SDS011;26635;-35.248;149.138;2022-12-22T07:41:21;4.00;;;1.27;;
39930;SDS011;26635;-35.248;149.138;2022-12-22T07:44:14;1.33;;;0.93;;
39930;SDS011;26635;-35.248;149.138;2022-12-22T07:46:45;2.53;;;1.25;;
39930;SDS011;26635;-35.248;149.138;2022-12-22T07:49:16;2.00;;;0.93;;
39930;SDS011;26635;-35.248;149.138;2022-12-22T07:52:05;3.63;;;1.42;;
39930;SDS011;26635;-35.248;149.138;2022-12-22T07:54:35;2.30;;;1.30;;
39930;SDS011;26635;-35.248;149.138;2022-12-22T07:57:08;2.15;;;1.00;;
39930;SDS011;26635;-35.248;149.138;2022-12-22T07:59:40;3.28;;;1.20;;
39930;SDS011;26635;-35.248;149.138;2022-12-22T08:02:11;4.18;;;1.38;;
39930;SDS011;26635;-35.248;149.138;2022-12-22T08:04:42;2.63;;;0.77;;
39930;SDS011;26635;-35.248;149.138;2022-12-22T08:07:12;2.60;;;0.93;;
39930;SDS011;26635;-35.248;149.138;2022-12-22T08:09:43;3.55;;;1.38;;
39930;SDS011;26635;-35.248;149.138;2022-12-22T08:12:13;1.65;;;0.90;;
39930;SDS011;26635;-35.248;149.138;2022-12-22T08:14:43;2.53;;;1.10;;
39930;SDS011;26635;-35.248;149.138;2022-12-22T08:17:14;2.15;;;0.88;;
39930;SDS011;26635;-35.248;149.138;2022-12-22T08:19:45;2.90;;;1.25;;
39930;SDS011;26635;-35.248;149.138;2022-12-22T08:22:17;3.55;;;1.50;;
39930;SDS011;26635;-35.248;149.138;2022-12-22T08:24:51;2.03;;;0.98;;
39930;SDS011;26635;-35.248;149.138;2022-12-22T08:27:23;1.88;;;0.90;;
39930;SDS011;26635;-35.248;149.138;2022-12-22T08:30:06;4.65;;;1.30;;
39930;SDS011;26635;-35.248;149.138;2022-12-22T08:32:37;3.22;;;1.52;;
39930;SDS011;26635;-35.248;149.138;2022-12-22T08:35:11;3.00;;;1.30;;
39930;SDS011;26635;-35.248;149.138;2022-12-22T08:37:42;2.92;;;0.98;;
39930;SDS011;26635;-35.248;149.138;2022-12-22T08:40:17;5.00;;;1.00;;
39930;SDS011;26635;-35.248;149.138;2022-12-22T08:43:12;4.20;;;0.90;;
39930;SDS011;26635;-35.248;149.138;2022-12-22T08:45:55;2.55;;;1.08;;
39930;SDS011;26635;-35.248;149.138;2022-12-22T08:48:25;3.42;;;1.25;;
39930;SDS011;26635;-35.248;149.138;2022-12-22T08:50:56;2.13;;;1.00;;
39930;SDS011;26635;-35.248;149.138;2022-12-22T08:53:26;3.78;;;1.35;;
39930;SDS011;26635;-35.248;149.138;2022-12-22T08:56:17;1.35;;;1.00;;
39930;SDS011;26635;-35.248;149.138;2022-12-22T08:58:47;4.97;;;1.10;;
39930;SDS011;26635;-35.248;149.138;2022-12-22T09:01:18;3.90;;;1.50;;
39930;SDS011;26635;-35.248;149.138;2022-12-22T09:03:51;4.88;;;1.08;;
39930;SDS011;26635;-35.248;149.138;2022-12-22T09:06:22;2.47;;;1.45;;
39930;SDS011;26635;-35.248;149.138;2022-12-22T09:08:59;2.72;;;1.40;;
39930;SDS011;26635;-35.248;149.138;2022-12-22T09:11:32;3.00;;;1.08;;
39930;SDS011;26635;-35.248;149.138;2022-12-22T09:14:02;3.08;;;1.02;;
39930;SDS011;26635;-35.248;149.138;2022-12-22T09:16:34;2.67;;;0.98;;
39930;SDS011;26635;-35.248;149.138;2022-12-22T09:19:06;2.42;;;1.15;;
39930;SDS011;26635;-35.248;149.138;2022-12-22T09:21:36;1.42;;;1.10;;
39930;SDS011;26635;-35.248;149.138;2022-12-22T09:24:07;2.97;;;1.50;;
39930;SDS011;26635;-35.248;149.138;2022-12-22T09:26:39;3.13;;;1.20;;
39930;SDS011;26635;-35.248;149.138;2022-12-22T09:29:10;4.07;;;1.15;;
39930;SDS011;26635;-35.248;149.138;2022-12-22T09:31:44;2.83;;;1.30;;
39930;SDS011;26635;-35.248;149.138;2022-12-22T09:34:15;3.58;;;1.35;;
39930;SDS011;26635;-35.248;149.138;2022-12-22T09:36:46;5.28;;;1.70;;
39930;SDS011;26635;-35.248;149.138;2022-12-22T09:39:17;3.88;;;1.60;;
39930;SDS011;26635;-35.248;149.138;2022-12-22T09:41:55;3.75;;;1.70;;
39930;SDS011;26635;-35.248;149.138;2022-12-22T09:44:30;5.68;;;1.55;;
39930;SDS011;26635;-35.248;149.138;2022-12-22T09:47:20;4.97;;;1.85;;
39930;SDS011;26635;-35.248;149.138;2022-12-22T09:49:52;4.03;;;1.90;;
39930;SDS011;26635;-35.248;149.138;2022-12-22T09:57:54;4.22;;;1.95;;
39930;SDS011;26635;-35.248;149.138;2022-12-22T10:00:26;4.63;;;1.95;;
39930;SDS011;26635;-35.248;149.138;2022-12-22T10:05:57;7.85;;;2.55;;
39930;SDS011;26635;-35.248;149.138;2022-12-22T10:08:40;4.72;;;2.20;;
39930;SDS011;26635;-35.248;149.138;2022-12-22T10:11:29;3.80;;;2.35;;
39930;SDS011;26635;-35.248;149.138;2022-12-22T10:14:19;5.80;;;1.73;;
39930;SDS011;26635;-35.248;149.138;2022-12-22T10:17:06;3.22;;;1.30;;
39930;SDS011;26635;-35.248;149.138;2022-12-22T10:19:43;4.20;;;1.63;;
39930;SDS011;26635;-35.248;149.138;2022-12-22T10:22:28;5.50;;;1.85;;
39930;SDS011;26635;-35.248;149.138;2022-12-22T10:25:02;3.10;;;2.10;;
39930;SDS011;26635;-35.248;149.138;2022-12-22T10:27:35;6.43;;;2.50;;
39930;SDS011;26635;-35.248;149.138;2022-12-22T10:30:18;3.47;;;2.00;;
39930;SDS011;26635;-35.248;149.138;2022-12-22T10:33:30;5.20;;;1.75;;
39930;SDS011;26635;-35.248;149.138;2022-12-22T10:35:50;4.45;;;1.60;;
39930;SDS011;26635;-35.248;149.138;2022-12-22T10:38:53;4.50;;;1.92;;
39930;SDS011;26635;-35.248;149.138;2022-12-22T10:41:33;5.07;;;2.90;;
39930;SDS011;26635;-35.248;149.138;2022-12-22T10:46:48;5.50;;;2.60;;
39930;SDS011;26635;-35.248;149.138;2022-12-22T10:54:40;5.13;;;2.03;;
39930;SDS011;26635;-35.248;149.138;2022-12-22T11:05:06;4.65;;;1.40;;
39930;SDS011;26635;-35.248;149.138;2022-12-22T11:07:41;3.85;;;1.38;;
39930;SDS011;26635;-35.248;149.138;2022-12-22T11:16:23;2.30;;;1.60;;
39930;SDS011;26635;-35.248;149.138;2022-12-22T11:27:48;2.97;;;1.90;;
39930;SDS011;26635;-35.248;149.138;2022-12-22T11:34:19;5.22;;;2.53;;
39930;SDS011;26635;-35.248;149.138;2022-12-22T11:39:52;3.75;;;2.20;;
39930;SDS011;26635;-35.248;149.138;2022-12-22T11:56:39;2.97;;;1.67;;
39930;SDS011;26635;-35.248;149.138;2022-12-22T11:59:17;3.85;;;1.83;;
39930;SDS011;26635;-35.248;149.138;2022-12-22T12:05:20;3.45;;;2.00;;
39930;SDS011;26635;-35.248;149.138;2022-12-22T12:11:22;5.07;;;1.98;;
39930;SDS011;26635;-35.248;149.138;2022-12-22T12:14:24;4.50;;;2.22;;
39930;SDS011;26635;-35.248;149.138;2022-12-22T12:17:18;4.70;;;2.10;;
39930;SDS011;26635;-35.248;149.138;2022-12-22T12:20:30;3.83;;;2.33;;
39930;SDS011;26635;-35.248;149.138;2022-12-22T12:23:37;3.42;;;2.35;;
39930;SDS011;26635;-35.248;149.138;2022-12-22T12:26:27;3.63;;;2.00;;
39930;SDS011;26635;-35.248;149.138;2022-12-22T12:29:51;4.90;;;1.90;;
39930;SDS011;26635;-35.248;149.138;2022-12-22T12:33:00;3.05;;;2.00;;
39930;SDS011;26635;-35.248;149.138;2022-12-22T12:38:25;4.30;;;2.22;;
39930;SDS011;26635;-35.248;149.138;2022-12-22T12:44:00;5.22;;;2.90;;
39930;SDS011;26635;-35.248;149.138;2022-12-22T12:50:28;3.83;;;1.80;;
39930;SDS011;26635;-35.248;149.138;2022-12-22T12:55:31;2.35;;;1.70;;
39930;SDS011;26635;-35.248;149.138;2022-12-22T12:58:02;3.47;;;1.98;;
39930;SDS011;26635;-35.248;149.138;2022-12-22T13:00:45;2.38;;;1.70;;
39930;SDS011;26635;-35.248;149.138;2022-12-22T13:09:24;3.42;;;2.30;;
39930;SDS011;26635;-35.248;149.138;2022-12-22T13:12:33;2.72;;;1.70;;
39930;SDS011;26635;-35.248;149.138;2022-12-22T13:16:19;5.25;;;2.40;;
39930;SDS011;26635;-35.248;149.138;2022-12-22T13:18:03;3.00;;;1.60;;
39930;SDS011;26635;-35.248;149.138;2022-12-22T13:26:47;5.13;;;1.92;;
39930;SDS011;26635;-35.248;149.138;2022-12-22T13:32:32;3.90;;;2.35;;
39930;SDS011;26635;-35.248;149.138;2022-12-22T13:38:28;5.93;;;2.08;;
39930;SDS011;26635;-35.248;149.138;2022-12-22T13:41:20;2.15;;;1.70;;
39930;SDS011;26635;-35.248;149.138;2022-12-22T13:44:30;3.25;;;2.33;;
39930;SDS011;26635;-35.248;149.138;2022-12-22T13:47:10;2.05;;;1.73;;
39930;SDS011;26635;-35.248;149.138;2022-12-22T13:49:43;5.57;;;2.05;;
39930;SDS011;26635;-35.248;149.138;2022-12-22T13:52:34;3.85;;;1.90;;
39930;SDS011;26635;-35.248;149.138;2022-12-22T13:55:08;2.80;;;1.95;;
39930;SDS011;26635;-35.248;149.138;2022-12-22T13:57:44;4.28;;;2.08;;
39930;SDS011;26635;-35.248;149.138;2022-12-22T14:00:24;4.20;;;2.00;;
39930;SDS011;26635;-35.248;149.138;2022-12-22T14:03:17;4.25;;;2.25;;
39930;SDS011;26635;-35.248;149.138;2022-12-22T14:09:10;2.95;;;1.85;;
39930;SDS011;26635;-35.248;149.138;2022-12-22T14:11:41;3.10;;;2.30;;
39930;SDS011;26635;-35.248;149.138;2022-12-22T14:14:28;3.40;;;2.15;;
39930;SDS011;26635;-35.248;149.138;2022-12-22T14:17:23;3.05;;;1.70;;
39930;SDS011;26635;-35.248;149.138;2022-12-22T14:20:00;2.80;;;1.55;;
39930;SDS011;26635;-35.248;149.138;2022-12-22T14:23:02;3.85;;;1.75;;
39930;SDS011;26635;-35.248;149.138;2022-12-22T14:25:45;3.65;;;1.80;;
39930;SDS011;26635;-35.248;149.138;2022-12-22T14:30:52;2.92;;;1.55;;
39930;SDS011;26635;-35.248;149.138;2022-12-22T14:36:04;3.10;;;1.75;;
39930;SDS011;26635;-35.248;149.138;2022-12-22T14:38:57;3.83;;;2.03;;
39930;SDS011;26635;-35.248;149.138;2022-12-22T14:41:47;3.00;;;2.15;;
39930;SDS011;26635;-35.248;149.138;2022-12-22T14:44:24;3.92;;;1.55;;
39930;SDS011;26635;-35.248;149.138;2022-12-22T14:52:44;6.43;;;3.10;;
39930;SDS011;26635;-35.248;149.138;2022-12-22T14:58:28;4.38;;;2.33;;
39930;SDS011;26635;-35.248;149.138;2022-12-22T15:01:14;2.90;;;2.00;;
39930;SDS011;26635;-35.248;149.138;2022-12-22T15:06:36;4.35;;;2.70;;
39930;SDS011;26635;-35.248;149.138;2022-12-22T15:09:23;4.43;;;2.75;;
39930;SDS011;26635;-35.248;149.138;2022-12-22T15:12:15;5.63;;;2.80;;
39930;SDS011;26635;-35.248;149.138;2022-12-22T15:14:48;3.45;;;2.40;;
39930;SDS011;26635;-35.248;149.138;2022-12-22T15:17:21;4.90;;;2.28;;
39930;SDS011;26635;-35.248;149.138;2022-12-22T15:19:58;4.55;;;2.13;;
39930;SDS011;26635;-35.248;149.138;2022-12-22T15:22:29;4.93;;;3.10;;
39930;SDS011;26635;-35.248;149.138;2022-12-22T15:24:59;8.30;;;3.28;;
39930;SDS011;26635;-35.248;149.138;2022-12-22T15:27:29;7.13;;;2.70;;
39930;SDS011;26635;-35.248;149.138;2022-12-22T15:30:00;5.60;;;3.40;;
39930;SDS011;26635;-35.248;149.138;2022-12-22T15:32:31;12.73;;;4.65;;
39930;SDS011;26635;-35.248;149.138;2022-12-22T15:35:09;10.13;;;4.25;;
39930;SDS011;26635;-35.248;149.138;2022-12-22T15:37:47;9.60;;;4.05;;
39930;SDS011;26635;-35.248;149.138;2022-12-22T15:40:19;7.28;;;3.63;;
39930;SDS011;26635;-35.248;149.138;2022-12-22T15:42:51;6.75;;;4.30;;
39930;SDS011;26635;-35.248;149.138;2022-12-22T15:45:23;6.85;;;4.05;;
39930;SDS011;26635;-35.248;149.138;2022-12-22T15:47:54;9.65;;;4.95;;
39930;SDS011;26635;-35.248;149.138;2022-12-22T15:50:27;8.68;;;4.65;;
39930;SDS011;26635;-35.248;149.138;2022-12-22T15:53:05;7.88;;;3.88;;
39930;SDS011;26635;-35.248;149.138;2022-12-22T15:55:40;9.55;;;3.80;;
39930;SDS011;26635;-35.248;149.138;2022-12-22T15:58:23;9.50;;;4.78;;
39930;SDS011;26635;-35.248;149.138;2022-12-22T16:00:57;11.98;;;3.67;;
39930;SDS011;26635;-35.248;149.138;2022-12-22T16:03:27;4.78;;;2.80;;
39930;SDS011;26635;-35.248;149.138;2022-12-22T16:05:58;5.53;;;2.60;;
39930;SDS011;26635;-35.248;149.138;2022-12-22T16:08:34;4.95;;;2.60;;
39930;SDS011;26635;-35.248;149.138;2022-12-22T16:11:08;3.80;;;2.30;;
39930;SDS011;26635;-35.248;149.138;2022-12-22T16:13:41;4.75;;;2.40;;
39930;SDS011;26635;-35.248;149.138;2022-12-22T16:16:12;6.53;;;3.35;;
39930;SDS011;26635;-35.248;149.138;2022-12-22T16:18:42;4.72;;;2.60;;
39930;SDS011;26635;-35.248;149.138;2022-12-22T16:21:17;5.07;;;2.25;;
39930;SDS011;26635;-35.248;149.138;2022-12-22T16:23:53;3.97;;;2.00;;
39930;SDS011;26635;-35.248;149.138;2022-12-22T16:26:27;3.22;;;1.90;;
39930;SDS011;26635;-35.248;149.138;2022-12-22T16:28:57;4.03;;;2.03;;
39930;SDS011;26635;-35.248;149.138;2022-12-22T16:31:28;3.45;;;1.92;;
39930;SDS011;26635;-35.248;149.138;2022-12-22T16:33:58;3.28;;;1.90;;
39930;SDS011;26635;-35.248;149.138;2022-12-22T16:36:30;2.90;;;1.95;;
39930;SDS011;26635;-35.248;149.138;2022-12-22T16:39:01;3.83;;;2.10;;
39930;SDS011;26635;-35.248;149.138;2022-12-22T16:41:31;2.50;;;1.40;;
39930;SDS011;26635;-35.248;149.138;2022-12-22T16:44:02;3.67;;;1.95;;
39930;SDS011;26635;-35.248;149.138;2022-12-22T16:46:53;3.38;;;1.98;;
39930;SDS011;26635;-35.248;149.138;2022-12-22T16:49:26;2.72;;;1.83;;
39930;SDS011;26635;-35.248;149.138;2022-12-22T16:51:57;2.47;;;1.60;;
39930;SDS011;26635;-35.248;149.138;2022-12-22T16:54:29;3.58;;;1.98;;
39930;SDS011;26635;-35.248;149.138;2022-12-22T16:57:00;3.20;;;2.17;;
39930;SDS011;26635;-35.248;149.138;2022-12-22T16:59:31;4.20;;;2.28;;
39930;SDS011;26635;-35.248;149.138;2022-12-22T17:02:14;4.28;;;2.30;;
39930;SDS011;26635;-35.248;149.138;2022-12-22T17:04:56;3.88;;;2.17;;
39930;SDS011;26635;-35.248;149.138;2022-12-22T17:07:29;5.20;;;1.85;;
39930;SDS011;26635;-35.248;149.138;2022-12-22T17:10:02;2.38;;;1.50;;
39930;SDS011;26635;-35.248;149.138;2022-12-22T17:12:33;2.25;;;1.40;;
39930;SDS011;26635;-35.248;149.138;2022-12-22T17:15:03;2.28;;;1.27;;
39930;SDS011;26635;-35.248;149.138;2022-12-22T17:17:34;3.28;;;1.27;;
39930;SDS011;26635;-35.248;149.138;2022-12-22T17:20:16;4.72;;;1.65;;
39930;SDS011;26635;-35.248;149.138;2022-12-22T17:22:53;2.88;;;1.50;;
39930;SDS011;26635;-35.248;149.138;2022-12-22T17:25:28;2.65;;;1.35;;
39930;SDS011;26635;-35.248;149.138;2022-12-22T17:28:03;3.67;;;1.33;;
39930;SDS011;26635;-35.248;149.138;2022-12-22T17:30:36;2.47;;;1.30;;
39930;SDS011;26635;-35.248;149.138;2022-12-22T17:33:12;2.30;;;1.20;;
39930;SDS011;26635;-35.248;149.138;2022-12-22T17:35:47;1.95;;;1.23;;
39930;SDS011;26635;-35.248;149.138;2022-12-22T17:38:22;6.63;;;1.58;;